Sand Point Airport Sand Point US
ICAO: PASD
IATA:
Category: Medium
Scheduled Services:

Elevation: 21 ft
TransAlt. 0 ft.

Airport Communications:
AWOS 3:134.85
CLNC DEL:122.3
ANCHORAGE CNTR:125.35
CTAF:122.3
COLD BAY RDO:122.3
UNICOM:122.8

PASD Zoom In..

If you have problems with the map follow the link
https://www.worldairports.se/pages/airport.php?
ICAO=PASD

Runways:

(A) RW 13 length 5213 ft width 150 ft
---- / hdg 134

(B) RW 31 length 5213 ft width 150 ft
---- / hdg 314

Location; PASD
Day. 19 / Time. 02.56 Zulu
* Altimeter: 29.33
* Temperature: 6/° c. 42.8°f.
* Wind from: 000° Speed 00 kn.
Dewpoint: //° c.
Visibility: 10 Statute Miles.
Clouds: Few 1800 ft.
Clouds: Scattered 4800 ft.
Clouds: Broken 6000 ft.

PASD 190256Z 00000KT 10SM FEW018 SCT048 BKN060 M01/M03 A2933 RMK AO2 SLP934 6//// T10061033 53002


Wind - Calm.

 
 
jpsmedia worldairports.se 2020   terms of use